Aérodrome :
LOGIN :

S'inscrire | Disclaimer

   EN    FR    IT 

 










Légende :    VFR   VFR Marginal   IFR   IFR Intensif   IFR Très Intensif
Visi : 
Plafond : 
>= 8 km
>= 3000ft
5 à 8 km
1000 à 3000 ft
1500m à 5 km
500 à 1000 ft
800 à 1500m
200 à 500 ft
< 800m
< 200 ft
Symboles :   Orages  Brouillard  Fortes neiges  Fortes précipitations  Vent > 20 kt
SIGMETs :   Divers  Orages  Givrage  Turbulence  Onde Orograph.  Cendres Volcan.







- Altitude de l'aérodrome : 935 ft


EBFS - Florennes

DERNIER METAR :
  • 231455Z AUTO 02011KT 7000 FEW016/// BKN027/// BKN070/// 10/06 Q1030 WHT

METARs EXPIRÉS :
  • 231425Z AUTO 01008KT 5000 FEW017/// BKN026/// BKN075/// 09/06 Q1030 WHT
  • 231355Z AUTO 02008KT 7000 FEW020/// BKN025/// BKN085/// 10/06 Q1030 WHT
  • 231325Z AUTO 04008KT 8000 SCT022/// BKN027/// OVC090/// 09/05 Q1030 WHT
  • 231255Z AUTO 01009KT 8000 SCT022/// BKN026/// 10/04 Q1030 WHT
  • 231225Z AUTO 03005KT 6000 SCT020/// BKN025/// OVC033/// 09/04 Q1030 WHT
  • 231155Z AUTO 02006KT 6000 SCT018/// OVC021/// 09/05 Q1030 WHT

Prévision TAF périmée.
Pas de NOTAMs connus pour ce terrain.



MET'MAP, la Météo Aéronautique d'un coup d'oeil ! - Copyright ORBIFLY Décembre 2007 - Disclaimer

ORBIFLY MET'MAP TEAM :

Programmation & Développement : Alexandra Zaïnal
Conception & Développement : Baudouin d'Aumeries
Co-Programmation & Développement : Marc-Olivier Méhu
Soutien technique & logistique : Manuel Goepfert

Contact : metmap@orbifly.com




SOURCES & CREDITS :

   NOAA